createdAt,value
2019-05-05T01:21:04.564Z,97944.70
2019-05-05T01:25:12.030Z,97946.30
2019-05-05T01:29:17.782Z,97946.36
2019-05-05T01:33:25.169Z,97948.20
2019-05-05T01:37:32.496Z,97948.61
2019-05-05T01:41:39.873Z,97959.09
2019-05-05T01:45:45.765Z,97958.00
2019-05-05T01:49:51.429Z,97957.13
2019-05-05T01:53:57.094Z,97959.02
2019-05-05T01:58:04.814Z,97955.83
2019-05-05T02:02:10.497Z,97958.27
2019-05-05T02:06:16.182Z,97956.66
2019-05-05T02:10:22.334Z,97955.55
2019-05-05T02:14:28.060Z,97956.00
2019-05-05T02:18:34.561Z,97959.91
2019-05-05T02:22:40.495Z,97958.80
2019-05-05T02:26:46.235Z,97963.02
2019-05-05T02:30:51.669Z,97968.75
2019-05-05T02:34:59.376Z,97962.55
2019-05-05T02:39:08.077Z,97968.59
2019-05-05T02:43:15.160Z,97970.62
2019-05-05T02:47:29.797Z,97979.00
2019-05-05T02:51:36.977Z,97978.15
2019-05-05T02:55:44.216Z,97984.29
2019-05-05T02:59:55.182Z,97984.93
2019-05-05T03:04:03.761Z,97986.95
2019-05-05T03:08:10.005Z,97994.10
2019-05-05T03:12:18.446Z,97994.08
2019-05-05T03:16:28.054Z,97993.78
2019-05-05T03:20:34.359Z,97994.33
2019-05-05T03:24:40.682Z,97998.92
2019-05-05T03:28:56.384Z,98005.55
2019-05-05T03:33:05.503Z,98009.75
2019-05-05T03:37:10.742Z,98009.01
2019-05-05T03:41:23.856Z,98002.77
2019-05-05T03:45:31.484Z,98011.81
2019-05-05T03:49:37.694Z,98027.09
2019-05-05T03:53:44.060Z,98029.33
2019-05-05T03:57:50.014Z,98024.99
2019-05-05T04:02:03.966Z,98027.20
2019-05-05T04:06:09.980Z,98021.27
2019-05-05T04:10:15.976Z,98016.86
2019-05-05T04:14:21.721Z,98019.56
2019-05-05T04:18:29.735Z,98016.55
2019-05-05T04:22:35.392Z,98024.53
2019-05-05T04:26:41.062Z,98032.48
2019-05-05T04:30:46.730Z,98030.72
2019-05-05T04:34:54.334Z,98034.20
2019-05-05T04:38:59.765Z,98030.15
2019-05-05T04:43:05.555Z,98032.05
2019-05-05T04:47:18.363Z,98030.64
2019-05-05T04:51:44.796Z,98036.81
2019-05-05T04:55:39.808Z,98029.38
2019-05-05T04:59:46.363Z,98032.13
2019-05-05T05:03:56.117Z,98038.56
2019-05-05T05:12:00.468Z,98045.30
2019-05-05T05:16:06.395Z,98053.23
2019-05-05T05:20:14.188Z,98058.64
2019-05-05T05:24:19.881Z,98063.75
2019-05-05T05:28:25.562Z,98071.02
2019-05-05T05:32:31.219Z,98078.45
2019-05-05T05:36:36.939Z,98076.61
2019-05-05T05:40:56.063Z,98091.33
2019-05-05T05:45:04.107Z,98090.91
2019-05-05T05:49:13.961Z,98100.20
2019-05-05T05:53:19.628Z,98111.50
2019-05-05T05:57:25.303Z,98125.80
2019-05-05T06:01:30.981Z,98126.05
2019-05-05T06:05:36.649Z,98128.53
2019-05-05T06:09:43.890Z,98145.19
2019-05-05T06:13:49.613Z,98142.02
2019-05-05T06:17:55.359Z,98143.48
2019-05-05T06:22:01.097Z,98149.00
2019-05-05T06:26:07.335Z,98148.41
2019-05-05T06:30:14.003Z,98152.77
2019-05-05T06:34:19.674Z,98155.25
2019-05-05T06:38:25.344Z,98163.77
2019-05-05T06:42:35.661Z,98172.97
2019-05-05T06:46:57.924Z,98171.20
2019-05-05T06:51:04.037Z,98174.43
2019-05-05T06:55:10.080Z,98175.61
2019-05-05T06:59:15.817Z,98183.48
2019-05-05T07:03:21.496Z,98185.64
2019-05-05T07:07:27.187Z,98194.32
2019-05-05T07:11:34.277Z,98195.48
2019-05-05T07:15:47.003Z,98200.48
2019-05-05T07:19:54.344Z,98204.39
2019-05-05T07:24:00.384Z,98200.41
2019-05-05T07:28:06.066Z,98208.97
2019-05-05T07:32:13.977Z,98224.61
2019-05-05T07:36:38.617Z,98225.27
2019-05-05T07:40:44.297Z,98232.45
2019-05-05T07:44:49.985Z,98238.95
2019-05-05T07:48:55.734Z,98247.03
2019-05-05T07:53:12.379Z,98260.23
2019-05-05T07:57:08.863Z,98260.69
2019-05-05T08:01:14.547Z,98260.45
2019-05-05T08:05:20.225Z,98263.09
2019-05-05T08:09:25.907Z,98274.29
2019-05-05T08:13:33.497Z,98274.69
2019-05-05T08:17:56.568Z,98271.90
2019-05-05T08:22:03.658Z,98273.82
2019-05-05T08:26:13.727Z,98283.70
2019-05-05T08:30:38.023Z,98280.88
2019-05-05T08:34:57.373Z,98272.75
2019-05-05T08:38:51.079Z,98274.88
2019-05-05T08:42:56.855Z,98272.00
2019-05-05T08:47:04.487Z,98269.25
2019-05-05T08:51:09.912Z,98274.44
2019-05-05T08:55:15.676Z,98269.52
2019-05-05T08:59:21.396Z,98267.28
2019-05-05T09:03:27.149Z,98272.34
2019-05-05T09:07:33.674Z,98267.53
2019-05-05T09:11:39.381Z,98267.25
2019-05-05T09:15:45.113Z,98265.16
2019-05-05T09:19:50.802Z,98255.19
2019-05-05T09:24:01.687Z,98252.56
2019-05-05T09:28:07.211Z,98252.34
2019-05-05T09:32:13.870Z,98245.25
2019-05-05T09:36:19.726Z,98244.98
2019-05-05T09:40:39.092Z,98241.11
2019-05-05T09:44:44.773Z,98234.77
2019-05-05T09:48:50.463Z,98248.98
2019-05-05T09:52:56.252Z,98241.63
2019-05-05T09:57:04.258Z,98242.20
2019-05-05T10:01:09.530Z,98243.61
2019-05-05T10:05:15.511Z,98242.45
2019-05-05T10:09:21.277Z,98249.55
2019-05-05T10:13:26.963Z,98248.36
2019-05-05T10:17:33.618Z,98248.39
2019-05-05T10:21:39.404Z,98259.67
2019-05-05T10:25:49.381Z,98254.19
2019-05-05T10:29:55.133Z,98264.69
2019-05-05T10:34:04.368Z,98267.27
2019-05-05T10:38:09.825Z,98268.66
2019-05-05T10:42:15.582Z,98262.17
2019-05-05T10:46:21.277Z,98264.33
2019-05-05T10:50:27.035Z,98251.28
2019-05-05T10:54:41.630Z,98253.05
2019-05-05T10:58:41.118Z,98264.31
2019-05-05T11:02:46.813Z,98267.48
2019-05-05T11:06:54.239Z,98264.91
2019-05-05T11:11:00.099Z,98264.16
2019-05-05T11:15:08.495Z,98261.64
2019-05-05T11:19:14.238Z,98266.61
2019-05-05T11:23:19.942Z,98264.88
2019-05-05T11:27:25.643Z,98265.19
2019-05-05T11:31:31.347Z,98274.09
2019-05-05T11:35:54.586Z,98271.80
2019-05-05T11:40:00.331Z,98269.72
2019-05-05T11:44:06.096Z,98267.75
2019-05-05T11:48:11.788Z,98276.06
2019-05-05T11:52:17.546Z,98278.80
2019-05-05T11:56:23.231Z,98279.97
2019-05-05T12:00:28.966Z,98286.45
2019-05-05T12:04:34.670Z,98283.04
2019-05-05T12:08:43.022Z,98285.58
2019-05-05T12:12:47.740Z,98280.46
2019-05-05T12:16:53.459Z,98281.98
2019-05-05T12:20:59.262Z,98284.27
2019-05-05T12:25:08.422Z,98283.12
2019-05-05T12:29:14.185Z,98287.75
2019-05-05T12:33:19.910Z,98280.84
2019-05-05T12:37:25.576Z,98281.11
2019-05-05T12:41:31.262Z,98276.41
2019-05-05T12:45:38.583Z,98274.53
2019-05-05T12:49:44.349Z,98276.38
2019-05-05T12:53:50.037Z,98275.62
2019-05-05T12:57:56.002Z,98275.07
2019-05-05T13:02:03.689Z,98267.31
2019-05-05T13:06:09.211Z,98272.41
2019-05-05T13:10:19.838Z,98271.87
2019-05-05T13:14:25.709Z,98268.83
2019-05-05T13:18:31.370Z,98266.13
2019-05-05T13:22:54.901Z,98274.41
2019-05-05T13:27:08.519Z,98265.61
2019-05-05T13:31:10.757Z,98261.77
2019-05-05T13:35:16.522Z,98254.27
2019-05-05T13:39:24.565Z,98261.01
2019-05-05T13:43:29.664Z,98246.78
2019-05-05T13:47:43.685Z,98243.00
2019-05-05T13:51:50.342Z,98242.34
2019-05-05T13:56:08.894Z,98242.00
2019-05-05T14:00:04.730Z,98244.87
2019-05-05T14:04:10.588Z,98250.06
2019-05-05T14:08:16.318Z,98251.45
2019-05-05T14:12:23.821Z,98246.41
2019-05-05T14:16:29.500Z,98247.05
2019-05-05T14:20:35.261Z,98238.52
2019-05-05T14:24:45.196Z,98241.09
2019-05-05T14:28:50.941Z,98239.26
2019-05-05T14:32:57.390Z,98230.50
2019-05-05T14:37:20.570Z,98225.61
2019-05-05T14:41:26.270Z,98221.91
2019-05-05T14:45:33.892Z,98224.16
2019-05-05T14:49:39.385Z,98208.55
2019-05-05T14:53:45.080Z,98208.98
2019-05-05T14:57:50.755Z,98209.58
2019-05-05T15:01:56.471Z,98209.33
2019-05-05T15:06:17.937Z,98218.47
2019-05-05T15:10:40.648Z,98224.01
2019-05-05T15:14:46.425Z,98222.12
2019-05-05T15:18:52.146Z,98225.55
2019-05-05T15:22:57.837Z,98234.47
2019-05-05T15:27:03.538Z,98225.13
2019-05-05T15:31:09.293Z,98233.96
2019-05-05T15:35:15.114Z,98238.45
2019-05-05T15:39:20.897Z,98234.11
2019-05-05T15:43:26.579Z,98231.69
2019-05-05T15:47:34.100Z,98234.17
2019-05-05T15:51:40.746Z,98227.77
2019-05-05T15:55:46.437Z,98245.70
2019-05-05T15:59:54.143Z,98239.20
2019-05-05T16:03:59.583Z,98251.02
2019-05-05T16:08:05.341Z,98259.21
2019-05-05T16:12:11.021Z,98254.90
2019-05-05T16:16:18.352Z,98255.78
2019-05-05T16:20:25.664Z,98254.29
2019-05-05T16:24:36.604Z,98260.17
2019-05-05T16:28:44.433Z,98254.15
2019-05-05T16:32:49.767Z,98253.39
2019-05-05T16:36:57.057Z,98254.50
2019-05-05T16:41:02.782Z,98260.27
2019-05-05T16:45:13.641Z,98260.27
2019-05-05T16:49:20.833Z,98258.34
2019-05-05T16:53:37.202Z,98261.80
2019-05-05T16:57:43.717Z,98256.59
2019-05-05T17:01:49.450Z,98258.95
2019-05-05T17:05:57.890Z,98255.50
2019-05-05T17:10:06.095Z,98256.45
2019-05-05T17:14:15.514Z,98266.18
2019-05-05T17:18:40.115Z,98265.81
2019-05-05T17:22:47.438Z,98265.31
2019-05-05T17:26:54.853Z,98269.47
2019-05-05T17:31:00.791Z,98267.98
2019-05-05T17:35:07.080Z,98279.27
2019-05-05T17:39:12.765Z,98278.75
2019-05-05T17:43:25.068Z,98279.98
2019-05-05T17:47:30.206Z,98283.45
2019-05-05T17:51:40.446Z,98285.08
2019-05-05T17:55:46.210Z,98281.19
2019-05-05T17:59:53.598Z,98283.44
2019-05-05T18:04:00.311Z,98283.38
2019-05-05T18:08:06.007Z,98293.84
2019-05-05T18:12:25.395Z,98289.95
2019-05-05T18:16:31.219Z,98295.33
2019-05-05T18:20:36.931Z,98298.31
2019-05-05T18:24:44.495Z,98295.49
2019-05-05T18:28:49.990Z,98300.20
2019-05-05T18:32:55.785Z,98302.22
2019-05-05T18:37:03.610Z,98308.20
2019-05-05T18:41:26.451Z,98309.89
2019-05-05T18:45:32.142Z,98311.95
2019-05-05T18:49:37.845Z,98315.00
2019-05-05T18:53:43.732Z,98322.16
2019-05-05T18:57:49.463Z,98323.86
2019-05-05T19:01:59.737Z,98330.28
2019-05-05T19:06:17.359Z,98336.90
2019-05-05T19:10:24.247Z,98333.59
2019-05-05T19:14:30.348Z,98337.06
2019-05-05T19:18:36.046Z,98335.48
2019-05-05T19:22:43.526Z,98347.16
2019-05-05T19:26:49.392Z,98347.83
2019-05-05T19:30:55.111Z,98345.66
2019-05-05T19:35:00.790Z,98351.09
2019-05-05T19:39:07.788Z,98352.06
2019-05-05T19:43:14.079Z,98350.22
2019-05-05T19:47:21.081Z,98355.40
2019-05-05T19:51:26.770Z,98368.63
2019-05-05T19:55:33.764Z,98366.86
2019-05-05T19:59:40.409Z,98366.23
2019-05-05T20:03:46.190Z,98367.42
2019-05-05T20:07:51.867Z,98349.38
2019-05-05T20:11:57.569Z,98356.72
2019-05-05T20:16:11.364Z,98345.02
2019-05-05T20:20:18.397Z,98355.91
2019-05-05T20:24:24.143Z,98351.70
2019-05-05T20:28:30.792Z,98361.84
2019-05-05T20:32:38.253Z,98362.27
2019-05-05T20:37:01.446Z,98355.84
2019-05-05T20:41:17.086Z,98355.31
2019-05-05T20:45:24.527Z,98361.09
2019-05-05T20:49:30.298Z,98360.02
2019-05-05T20:53:35.991Z,98361.84
2019-05-05T20:57:41.651Z,98356.30
2019-05-05T21:01:47.373Z,98353.72
2019-05-05T21:05:53.853Z,98357.12
2019-05-05T21:09:59.525Z,98351.95
2019-05-05T21:14:05.304Z,98348.33
2019-05-05T21:18:11.003Z,98347.17
2019-05-05T21:22:27.062Z,98341.32
2019-05-05T21:26:46.267Z,98348.70
2019-05-05T21:30:53.815Z,98341.97
2019-05-05T21:34:59.428Z,98338.64
2019-05-05T21:39:08.800Z,98334.67
2019-05-05T21:43:15.527Z,98342.81
2019-05-05T21:47:21.213Z,98338.75
2019-05-05T21:51:35.255Z,98341.44
2019-05-05T21:55:57.497Z,98339.94
2019-05-05T22:00:05.698Z,98341.88
2019-05-05T22:04:14.995Z,98345.83
2019-05-05T22:08:21.337Z,98345.08
2019-05-05T22:12:27.035Z,98348.91
2019-05-05T22:16:33.793Z,98348.84
2019-05-05T22:20:45.444Z,98351.87
2019-05-05T22:24:51.225Z,98343.23
2019-05-05T22:28:56.925Z,98347.55
2019-05-05T22:33:16.045Z,98351.33
2019-05-05T22:37:23.577Z,98351.98
2019-05-05T22:41:29.307Z,98350.45
2019-05-05T22:45:35.017Z,98349.16
2019-05-05T22:49:40.684Z,98350.55
2019-05-05T22:53:46.402Z,98348.60
2019-05-05T22:57:53.984Z,98345.66
2019-05-05T23:01:59.657Z,98341.64
2019-05-05T23:06:09.825Z,98346.22
2019-05-05T23:10:15.648Z,98345.55
2019-05-05T23:14:30.517Z,98343.45
2019-05-05T23:18:36.293Z,98345.91
2019-05-05T23:22:44.189Z,98348.57
2019-05-05T23:26:51.633Z,98353.74
2019-05-05T23:30:57.340Z,98354.05
2019-05-05T23:35:03.022Z,98352.97
2019-05-05T23:39:09.046Z,98361.56
2019-05-05T23:43:14.731Z,98354.04
2019-05-05T23:47:20.424Z,98357.20
2019-05-05T23:51:26.104Z,98352.34
2019-05-05T23:55:31.797Z,98357.91
2019-05-05T23:59:37.479Z,98344.41
